createdAt,value
2022-08-22T00:00:25.174Z,1.02
2022-08-22T00:03:12.821Z,0.93
2022-08-22T00:03:55.104Z,1.10
2022-08-22T00:07:15.010Z,1.87
2022-08-22T00:10:33.162Z,0.90
2022-08-22T00:13:36.358Z,0.98
2022-08-22T00:16:57.520Z,1.20
2022-08-22T00:20:15.883Z,1.30
2022-08-22T00:23:26.024Z,1.20
2022-08-22T00:26:33.883Z,1.17
2022-08-22T00:29:44.535Z,1.40
2022-08-22T00:32:59.397Z,1.33
2022-08-22T00:36:13.927Z,1.30
2022-08-22T00:39:21.472Z,1.33
2022-08-22T00:42:46.309Z,1.27
2022-08-22T00:46:10.848Z,1.35
2022-08-22T00:49:37.418Z,1.20
2022-08-22T00:52:55.373Z,1.30
2022-08-22T00:56:08.370Z,1.40
2022-08-22T00:59:33.123Z,1.12
2022-08-22T01:02:54.938Z,1.50
2022-08-22T01:06:33.099Z,1.17
2022-08-22T01:09:55.251Z,1.42
2022-08-22T01:13:54.451Z,1.37
2022-08-22T01:17:27.258Z,1.40
2022-08-22T01:20:59.490Z,1.20
2022-08-22T01:25:04.738Z,1.40
2022-08-22T01:28:40.285Z,1.40
2022-08-22T01:31:50.629Z,1.37
2022-08-22T01:35:18.256Z,1.23
2022-08-22T01:38:45.433Z,1.05
2022-08-22T01:42:03.514Z,1.15
2022-08-22T01:45:23.188Z,1.20
2022-08-22T01:48:57.354Z,1.37
2022-08-22T01:52:15.465Z,1.23
2022-08-22T01:55:56.336Z,1.30
2022-08-22T01:59:02.769Z,1.37
2022-08-22T02:02:55.123Z,1.35
2022-08-22T02:06:09.757Z,1.50
2022-08-22T02:09:34.719Z,1.48
2022-08-22T02:12:43.102Z,1.52
2022-08-22T02:16:35.261Z,1.60
2022-08-22T02:19:54.337Z,1.35
2022-08-22T02:23:06.193Z,1.60
2022-08-22T02:26:50.177Z,1.67
2022-08-22T02:30:11.150Z,1.58
2022-08-22T02:33:34.091Z,1.42
2022-08-22T02:36:50.453Z,1.48
2022-08-22T02:40:14.992Z,1.70
2022-08-22T02:43:28.404Z,1.20
2022-08-22T02:47:00.929Z,1.48
2022-08-22T02:50:07.298Z,1.45
2022-08-22T02:53:30.806Z,1.40
2022-08-22T02:56:39.495Z,1.70
2022-08-22T03:00:31.527Z,1.30
2022-08-22T03:03:42.044Z,1.30
2022-08-22T03:07:02.007Z,1.33
2022-08-22T03:10:14.506Z,1.12
2022-08-22T03:13:37.859Z,1.37
2022-08-22T03:17:06.167Z,1.40
2022-08-22T03:20:14.250Z,1.42
2022-08-22T03:23:28.270Z,1.42
2022-08-22T03:27:01.820Z,1.60
2022-08-22T03:30:19.700Z,1.48
2022-08-22T03:33:25.574Z,1.40
2022-08-22T03:36:31.457Z,1.62
2022-08-22T03:39:47.249Z,1.17
2022-08-22T03:43:10.988Z,1.00
2022-08-22T03:46:19.928Z,1.40
2022-08-22T03:49:33.009Z,1.15
2022-08-22T03:53:18.624Z,1.10
2022-08-22T03:57:16.917Z,1.23
2022-08-22T04:00:39.265Z,1.25
2022-08-22T04:04:01.298Z,1.50
2022-08-22T04:07:32.295Z,1.55
2022-08-22T04:10:39.946Z,1.30
2022-08-22T04:14:17.986Z,1.27
2022-08-22T04:17:39.240Z,1.40
2022-08-22T04:21:15.259Z,1.35
2022-08-22T04:24:52.890Z,1.23
2022-08-22T04:28:33.105Z,1.15
2022-08-22T04:31:46.290Z,1.30
2022-08-22T04:35:12.254Z,1.20
2022-08-22T04:38:30.321Z,0.95
2022-08-22T04:41:49.128Z,1.37
2022-08-22T04:44:56.338Z,1.10
2022-08-22T04:48:10.985Z,1.00
2022-08-22T04:51:24.627Z,0.73
2022-08-22T04:54:37.426Z,1.10
2022-08-22T04:58:09.721Z,0.90
2022-08-22T05:01:19.728Z,1.20
2022-08-22T05:04:32.758Z,0.90
2022-08-22T05:07:41.147Z,0.90
2022-08-22T05:10:47.492Z,0.80
2022-08-22T05:13:57.419Z,0.90
2022-08-22T05:17:01.720Z,0.90
2022-08-22T05:20:09.782Z,0.93
2022-08-22T05:23:25.168Z,0.90
2022-08-22T05:26:30.322Z,1.52
2022-08-22T05:29:33.678Z,0.77
2022-08-22T05:32:59.339Z,0.90
2022-08-22T05:36:07.630Z,1.00
2022-08-22T05:39:18.723Z,0.85
2022-08-22T05:42:37.550Z,1.00
2022-08-22T05:45:46.561Z,1.00
2022-08-22T05:49:19.049Z,1.20
2022-08-22T05:52:30.376Z,1.10
2022-08-22T05:55:55.599Z,1.10
2022-08-22T05:59:08.557Z,1.15
2022-08-22T06:02:25.181Z,1.30
2022-08-22T06:05:33.124Z,1.10
2022-08-22T06:08:40.605Z,1.60
2022-08-22T06:12:16.475Z,1.40
2022-08-22T06:15:35.193Z,1.70
2022-08-22T06:18:41.355Z,1.60
2022-08-22T06:21:48.138Z,1.83
2022-08-22T06:24:54.278Z,1.87
2022-08-22T06:28:01.696Z,1.75
2022-08-22T06:31:05.725Z,2.03
2022-08-22T06:34:36.349Z,2.12
2022-08-22T06:37:44.251Z,1.98
2022-08-22T06:40:49.123Z,2.00
2022-08-22T06:43:53.773Z,1.90
2022-08-22T06:47:00.399Z,1.62
2022-08-22T06:50:13.737Z,1.90
2022-08-22T06:53:45.963Z,1.92
2022-08-22T06:56:53.063Z,1.90
2022-08-22T06:59:59.140Z,2.05
2022-08-22T07:03:14.320Z,1.85
2022-08-22T07:06:28.613Z,1.98
2022-08-22T07:09:37.273Z,2.30
2022-08-22T07:23:44.963Z,2.40
2022-08-22T07:27:04.711Z,2.70
2022-08-22T07:30:12.912Z,2.87
2022-08-22T07:33:48.263Z,2.95
2022-08-22T07:37:02.205Z,2.90
2022-08-22T07:40:24.056Z,2.78
2022-08-22T07:43:32.929Z,2.62
2022-08-22T07:46:38.314Z,2.60
2022-08-22T07:49:58.803Z,3.25
2022-08-22T07:53:13.706Z,2.60
2022-08-22T07:56:27.745Z,3.30
2022-08-22T07:59:33.319Z,3.45
2022-08-22T08:02:36.996Z,3.70
2022-08-22T08:05:43.841Z,4.00
2022-08-22T08:08:46.749Z,4.00
2022-08-22T08:11:52.971Z,4.28
2022-08-22T08:14:56.791Z,4.75
2022-08-22T08:18:05.525Z,5.12
2022-08-22T08:21:14.967Z,5.97
2022-08-22T08:24:24.178Z,5.75
2022-08-22T08:27:50.409Z,5.32
2022-08-22T08:30:58.842Z,6.40
2022-08-22T08:34:06.767Z,6.28
2022-08-22T08:37:26.838Z,7.30
2022-08-22T08:40:32.839Z,6.43
2022-08-22T08:44:08.746Z,7.35
2022-08-22T08:47:17.385Z,7.25
2022-08-22T08:51:07.216Z,6.55
2022-08-22T08:54:33.715Z,8.05
2022-08-22T08:57:50.017Z,6.65
2022-08-22T09:00:59.346Z,7.40
2022-08-22T09:04:36.039Z,7.62
2022-08-22T09:07:48.461Z,8.80
2022-08-22T09:14:48.227Z,8.82
2022-08-22T09:18:10.888Z,7.75
2022-08-22T09:21:47.822Z,8.15
2022-08-22T09:40:15.394Z,8.73
2022-08-22T10:38:52.441Z,7.53
2022-08-22T10:42:16.998Z,7.00
2022-08-22T10:45:36.270Z,6.55
2022-08-22T10:48:48.323Z,7.87
2022-08-22T10:52:16.025Z,7.25
2022-08-22T10:55:26.966Z,6.62
2022-08-22T10:58:36.912Z,5.80
2022-08-22T11:01:52.402Z,5.90
2022-08-22T11:05:21.418Z,5.68
2022-08-22T11:08:44.302Z,5.75
2022-08-22T11:12:03.074Z,5.25
2022-08-22T11:15:27.253Z,5.62
2022-08-22T11:18:40.638Z,5.30
2022-08-22T11:22:10.325Z,5.30
2022-08-22T11:25:53.656Z,5.43
2022-08-22T11:29:13.481Z,5.90
2022-08-22T11:32:17.037Z,5.82
2022-08-22T11:35:33.053Z,5.53
2022-08-22T11:38:50.839Z,5.87
2022-08-22T11:42:12.644Z,6.18
2022-08-22T11:45:23.680Z,6.05
2022-08-22T11:48:41.303Z,6.65
2022-08-22T11:52:01.210Z,6.15
2022-08-22T11:55:07.239Z,6.62
2022-08-22T11:58:34.633Z,6.25
2022-08-22T12:01:44.098Z,6.97
2022-08-22T12:04:55.598Z,7.00
2022-08-22T12:08:40.765Z,7.07
2022-08-22T12:12:26.430Z,6.47
2022-08-22T12:15:35.960Z,7.57
2022-08-22T12:18:52.682Z,7.57
2022-08-22T12:22:15.071Z,6.93
2022-08-22T12:25:47.005Z,7.55
2022-08-22T12:29:15.480Z,7.30
2022-08-22T12:32:34.089Z,7.55
2022-08-22T13:16:01.496Z,5.05
2022-08-22T13:19:13.443Z,4.90
2022-08-22T13:22:22.298Z,4.00
2022-08-22T13:25:30.486Z,4.10
2022-08-22T13:28:47.997Z,3.40
2022-08-22T13:31:55.142Z,3.50
2022-08-22T13:35:00.791Z,3.12
2022-08-22T13:38:12.511Z,3.25
2022-08-22T13:41:27.186Z,3.33
2022-08-22T13:44:38.615Z,3.95
2022-08-22T13:47:51.370Z,3.58
2022-08-22T13:51:08.582Z,3.35
2022-08-22T13:54:20.323Z,2.67
2022-08-22T13:57:39.495Z,3.12
2022-08-22T14:01:09.464Z,2.75
2022-08-22T14:04:32.227Z,3.10
2022-08-22T14:07:43.740Z,3.10
2022-08-22T14:11:06.775Z,3.10
2022-08-22T14:14:12.150Z,4.00
2022-08-22T14:17:22.753Z,3.22
2022-08-22T14:20:32.643Z,3.60
2022-08-22T14:23:37.454Z,3.40
2022-08-22T14:26:51.626Z,4.25
2022-08-22T14:30:13.065Z,3.20
2022-08-22T14:33:25.868Z,3.15
2022-08-22T14:36:59.967Z,2.85
2022-08-22T14:40:29.923Z,2.90
2022-08-22T14:43:32.833Z,1.98
2022-08-22T14:47:04.152Z,2.20
2022-08-22T14:50:11.430Z,1.98
2022-08-22T14:53:25.178Z,1.70
2022-08-22T14:56:30.074Z,1.87
2022-08-22T14:59:39.294Z,1.70
2022-08-22T15:02:42.634Z,1.40
2022-08-22T15:06:10.991Z,1.35
2022-08-22T15:09:43.259Z,1.50
2022-08-22T15:12:52.283Z,1.20
2022-08-22T15:23:23.619Z,0.88
2022-08-22T15:26:38.374Z,0.90
2022-08-22T15:29:51.934Z,0.70
2022-08-22T15:33:09.364Z,0.80
2022-08-22T15:36:15.903Z,0.60
2022-08-22T15:39:31.725Z,0.80
2022-08-22T15:42:49.005Z,0.80
2022-08-22T15:46:28.370Z,0.82
2022-08-22T15:49:37.243Z,0.95
2022-08-22T15:56:13.956Z,1.50
2022-08-22T15:59:18.396Z,1.10
2022-08-22T16:02:35.676Z,1.70
2022-08-22T16:06:08.575Z,1.30
2022-08-22T16:09:50.453Z,1.70
2022-08-22T16:13:12.135Z,1.60
2022-08-22T16:16:28.445Z,1.75
2022-08-22T16:19:33.730Z,2.05
2022-08-22T16:22:58.465Z,1.85
2022-08-22T16:26:06.744Z,2.55
2022-08-22T16:29:17.887Z,2.08
2022-08-22T16:32:28.246Z,2.70
2022-08-22T16:36:18.938Z,2.47
2022-08-22T16:39:21.904Z,2.45
2022-08-22T16:42:38.672Z,2.28
2022-08-22T16:45:48.706Z,2.12
2022-08-22T16:49:01.027Z,2.60
2022-08-22T16:52:25.699Z,2.90
2022-08-22T16:55:28.597Z,2.45
2022-08-22T16:59:03.346Z,2.30
2022-08-22T17:02:29.166Z,2.60
2022-08-22T17:05:38.839Z,2.72
2022-08-22T17:09:03.559Z,2.50
2022-08-22T17:12:25.366Z,2.50
2022-08-22T17:15:35.179Z,2.65
2022-08-22T17:19:06.512Z,2.50
2022-08-22T20:30:55.667Z,2.90
2022-08-22T20:34:03.155Z,3.30
2022-08-22T20:37:29.586Z,2.78
2022-08-22T20:40:56.554Z,3.10
2022-08-22T20:44:12.592Z,3.00
2022-08-22T20:47:23.982Z,2.87
2022-08-22T20:50:28.824Z,2.85
2022-08-22T20:53:32.375Z,3.00
2022-08-22T20:56:53.317Z,2.90
2022-08-22T21:00:05.389Z,3.08
2022-08-22T21:03:32.837Z,3.25
2022-08-22T21:06:37.687Z,3.35
2022-08-22T21:09:59.126Z,3.00
2022-08-22T21:13:04.909Z,4.05
2022-08-22T21:16:17.098Z,3.85
2022-08-22T21:19:25.727Z,3.97
2022-08-22T21:22:31.423Z,3.37
2022-08-22T21:25:50.685Z,3.60
2022-08-22T21:29:06.407Z,3.97
2022-08-22T21:32:26.928Z,4.18
2022-08-22T21:35:33.373Z,4.12
2022-08-22T21:38:38.141Z,3.67
2022-08-22T21:41:50.030Z,3.83
2022-08-22T21:45:06.650Z,4.10
2022-08-22T21:48:34.128Z,4.60
2022-08-22T21:51:36.940Z,4.22
2022-08-22T21:54:39.986Z,4.68
2022-08-22T21:57:43.374Z,4.43
2022-08-22T22:00:57.396Z,4.82
2022-08-22T22:04:00.913Z,4.55
2022-08-22T22:07:03.640Z,4.60
2022-08-22T22:10:09.401Z,5.62
2022-08-22T22:13:12.090Z,5.07
2022-08-22T22:16:22.956Z,5.18
2022-08-22T22:19:25.646Z,5.15
2022-08-22T22:22:28.846Z,4.80
2022-08-22T22:25:39.506Z,5.07
2022-08-22T22:28:47.597Z,5.30
